4TS5 weather

Goebel Field
Mountain Home, Texas, United States

Public forecast

Using degrees Fahrenheit for public forecast. Weather courtesy of forecast.io.

Closest aviation weather report (METAR) to Goebel Field

Closest report is Kimble County Airport, 22.1 nm (41.0 km) NW. Retrieved 2019/10/22 17:51 UTC (56 minutes ago):

KJCT 221751Z AUTO VRB03KT 10SM CLR 24/04 A3022 RMK AO2 SLP209 T02390044 10239 20050 58007

Closest aviation forecast (TAF) to Goebel Field

Closest forecast is Kimble County Airport, 22.1 nm (41.0 km) NW. Retrieved 2019/10/22 18:48 UTC (0 seconds ago):

TAF KJCT 221745Z 2218/2318 15007KT P6SM SKC FM230100 VRB03KT P6SM SKC FM231400 19014G24KT P6SM SKC